Latest Weather Observations for Rottnest Island

IDW60801

Issued at 6:53 pm WST Monday 20 May 2019 (issued every 10 minutes, with the page automatically refreshed every 10 minutes)

About weather observations | Map of weather stations | Latest weather observations for WA | Other Formats
Station Details ID: 009193 Name: ROTTNEST ISLAND Lat: -32.01 Lon: 115.50 Height: 43.1 m
Data from the previous 72 hours. | See also: Recent months at Rottnest Island
Date/Time
WST
Temp
°C
App
Temp
°C
Dew
Point
°C
Rel
Hum
%
Delta-T
°C
Wind Press
QNH
hPa
Press
MSL
hPa
Rain since
9am
mm
Dir  Spd
km/h
Gust
km/h
Spd
kts
Gust
kts
20/06:30pm 16.8 13.4 10.4 66 3.4 WSW 19 24 10 13 1019.4 1019.3 0.0
20/06:00pm 17.1 13.5 10.5 65 3.5 WSW 20 28 11 15 1019.2 1019.1 0.0
20/05:30pm 17.1 13.4 10.2 64 3.7 WSW 20 28 11 15 1018.8 1018.7 0.0
20/05:00pm 17.7 13.9 9.8 60 4.2 SW 20 28 11 15 1018.5 1018.4 0.0
20/04:30pm 18.0 13.1 11.3 65 3.6 SW 28 33 15 18 1018.4 1018.3 0.0
20/04:00pm 18.9 14.5 11.7 63 4.0 WSW 26 33 14 18 1018.2 1018.1 0.0
20/03:30pm 19.0 15.0 10.6 58 4.5 WSW 22 32 12 17 1018.0 1017.9 0.0
20/03:00pm 18.6 14.3 10.7 60 4.3 WSW 24 32 13 17 1017.7 1017.6 0.0
20/02:30pm 19.4 14.8 9.6 53 5.2 WSW 24 32 13 17 1017.4 1017.3 0.0
20/02:00pm 19.6 14.9 10.6 56 4.9 WSW 26 33 14 18 1017.1 1017.0 0.0
20/01:30pm 20.1 15.5 11.1 56 4.9 WSW 26 35 14 19 1017.0 1016.9 0.0
20/01:00pm 20.0 15.7 9.3 50 5.7 WSW 22 30 12 16 1016.9 1016.8 0.0
20/12:30pm 19.4 14.8 9.6 53 5.2 WSW 24 30 13 16 1017.1 1017.0 0.0
20/12:00pm 19.5 14.4 10.5 56 4.9 WSW 28 35 15 19 1017.2 1017.1 0.0
20/11:30am 19.2 15.2 10.5 57 4.7 WSW 22 32 12 17 1017.4 1017.3 0.0
20/11:00am 19.4 14.3 7.8 47 5.9 W 24 32 13 17 1017.5 1017.4 0.0
20/10:30am 19.4 14.6 10.4 56 4.9 WSW 26 33 14 18 1017.3 1017.2 0.0
20/10:00am 18.9 14.9 10.5 58 4.5 WSW 22 28 12 15 1017.2 1017.1 0.0
20/09:30am 18.5 13.5 9.6 56 4.7 WSW 26 35 14 19 1016.7 1016.6 0.0
20/09:00am 18.4 13.7 10.5 60 4.2 WSW 26 32 14 17 1016.5 1016.4 3.4
20/08:30am 17.9 14.1 11.0 64 3.7 WSW 22 28 12 15 1016.2 1016.1 3.4
20/08:00am 17.4 14.0 11.2 67 3.4 WSW 20 30 11 16 1016.0 1015.9 3.4
20/07:30am 17.4 13.9 12.1 71 2.9 WSW 22 32 12 17 1015.5 1015.4 3.4
20/07:00am 17.5 13.8 12.6 73 2.7 WSW 24 32 13 17 1014.9 1014.8 3.4
20/06:30am 17.6 13.2 12.9 74 2.6 WSW 28 37 15 20 1014.2 1014.1 3.4
20/06:00am 17.9 14.6 14.0 78 2.2 WSW 24 35 13 19 1013.7 1013.6 3.4
20/05:30am 17.8 13.4 14.1 79 2.1 SW 30 39 16 21 1013.6 1013.5 3.4
20/05:00am 17.9 13.8 15.0 83 1.7 WSW 30 43 16 23 1013.1 1013.0 3.4
20/04:30am 18.2 14.0 15.6 85 1.5 SW 32 41 17 22 1012.7 1012.6 3.4
20/04:00am 17.6 13.9 15.9 90 1.0 SW 30 41 16 22 1012.1 1012.0 3.4
20/03:30am 18.8 15.5 17.1 90 1.0 NW 30 41 16 22 1012.4 1012.3 2.8
20/03:00am 20.1 15.8 15.9 77 2.5 NNW 33 43 18 23 1011.9 1011.8 0.0
20/02:30am 20.1 15.2 15.3 74 2.8 NW 35 44 19 24 1012.2 1012.1 0.0
20/02:00am 20.1 15.7 15.7 76 2.6 NW 33 52 18 28 1012.5 1012.4 0.0
20/01:58am 19.9 15.7 15.7 77 2.5 NW 32 52 17 28 1012.4 1012.3 0.0
20/01:30am 19.2 14.3 16.4 84 1.7 NNW 37 46 20 25 1012.5 1012.4 0.0
20/01:00am 18.6 13.3 16.2 86 1.4 NNW 39 52 21 28 1012.6 1012.5 0.0
20/12:30am 19.9 13.9 14.5 71 3.1 NNW 39 46 21 25 1012.4 1012.3 0.0
20/12:00am 19.5 14.1 13.9 70 3.2 NNW 35 44 19 24 1013.0 1012.9 0.0
 
Date/Time
WST
Temp
°C
App
Temp
°C
Dew
Point
°C
Rel
Hum
%
Delta-T
°C
Wind Press
QNH
hPa
Press
MSL
hPa
Rain since
9am
mm
Dir  Spd
km/h
Gust
km/h
Spd
kts
Gust
kts
19/11:30pm 19.1 14.1 13.5 70 3.2 NNW 32 43 17 23 1013.2 1013.1 0.0
19/11:00pm 19.0 13.8 12.7 67 3.5 NNW 32 41 17 22 1013.4 1013.3 0.0
19/10:30pm 18.9 13.4 11.9 64 3.9 NNW 32 39 17 21 1013.7 1013.6 0.0
19/10:00pm 19.0 13.3 11.1 60 4.3 NNW 32 39 17 21 1014.0 1013.9 0.0
19/09:30pm 18.9 13.2 9.9 56 4.8 NNW 30 39 16 21 1014.2 1014.1 0.0
19/09:00pm 18.7 13.6 9.2 54 5.0 NNW 26 33 14 18 1014.0 1013.9 0.0
19/08:30pm 18.6 13.7 8.6 52 5.2 NNW 24 32 13 17 1014.1 1014.0 0.0
19/08:00pm 18.4 14.4 8.4 52 5.2 NNW 19 24 10 13 1014.4 1014.3 0.0
19/07:30pm 18.0 13.7 7.1 49 5.5 NNW 19 24 10 13 1014.4 1014.3 0.0
19/07:00pm 17.6 13.9 6.5 48 5.5 NNW 15 20 8 11 1014.4 1014.3 0.0
19/06:30pm 17.4 13.3 6.3 48 5.5 NNW 17 20 9 11 1014.8 1014.7 0.0
19/06:00pm 17.0 13.5 5.6 47 5.5 NNW 13 17 7 9 1014.8 1014.7 0.0
19/05:30pm 16.9 13.4 5.5 47 5.5 NNW 13 17 7 9 1014.6 1014.5 0.0
19/05:00pm 17.2 13.3 5.2 45 5.8 N 15 17 8 9 1014.4 1014.3 0.0
19/04:30pm 18.0 13.2 4.6 41 6.4 N 19 24 10 13 1014.2 1014.1 0.0
19/04:00pm 19.1 14.1 3.7 36 7.3 N 19 24 10 13 1014.6 1014.5 0.0
19/03:30pm 18.6 13.4 3.3 36 7.2 N 20 26 11 14 1015.1 1015.0 0.0
19/03:00pm 18.8 13.6 3.8 37 7.1 NNW 20 26 11 14 1015.4 1015.3 0.0
19/02:30pm 17.9 12.2 2.6 36 7.0 N 22 28 12 15 1015.9 1015.8 0.0
19/02:00pm 19.3 13.5 4.6 38 7.1 N 24 30 13 16 1016.2 1016.1 0.0
19/01:30pm 18.3 12.5 4.5 40 6.6 NNE 24 33 13 18 1016.5 1016.4 0.0
19/01:00pm 18.0 12.7 4.9 42 6.3 NNE 22 30 12 16 1017.2 1017.1 0.0
19/12:30pm 17.2 11.4 4.5 43 6.0 NNE 24 30 13 16 1017.4 1017.3 0.0
19/12:00pm 17.2 11.9 5.2 45 5.8 N 22 30 12 16 1018.5 1018.4 0.0
19/11:30am 17.0 10.7 5.6 47 5.5 NNE 28 35 15 19 1019.0 1018.9 0.0
19/11:00am 16.2 10.4 6.3 52 4.8 NNE 26 35 14 19 1019.6 1019.5 0.0
19/10:30am 15.7 9.7 7.2 57 4.2 NNE 28 35 15 19 1020.0 1019.9 0.0
19/10:00am 15.2 8.3 6.5 56 4.2 NNE 32 39 17 21 1020.0 1019.9 0.0
19/09:30am 14.8 8.8 6.9 59 3.9 NNE 28 35 15 19 1020.2 1020.1 0.0
19/09:00am 13.7 7.9 6.1 60 3.6 NE 26 33 14 18 1020.2 1020.1 0.0
19/08:30am 13.5 7.7 6.4 62 3.4 NNE 26 35 14 19 1020.2 1020.1 0.0
19/08:00am 12.6 6.0 6.2 65 3.0 NNE 30 39 16 21 1020.2 1020.1 0.0
19/07:30am 12.3 7.0 6.6 68 2.7 NNE 24 33 13 18 1020.0 1019.9 0.0
19/07:00am 12.1 6.2 5.7 65 3.0 NNE 26 32 14 17 1020.0 1019.9 0.0
19/06:30am 12.0 6.5 5.9 66 2.9 NE 24 30 13 16 1020.0 1019.9 0.0
19/06:00am 11.7 7.0 6.0 68 2.7 NE 20 28 11 15 1020.0 1019.9 0.0
19/05:30am 11.9 7.1 5.8 66 2.9 NE 20 28 11 15 1020.4 1020.3 0.0
19/05:00am 11.9 7.4 6.0 67 2.8 NE 19 24 10 13 1020.5 1020.4 0.0
19/04:30am 12.2 7.5 6.0 66 2.9 NE 20 28 11 15 1020.7 1020.6 0.0
19/04:00am 12.5 7.8 6.1 65 3.0 NE 20 28 11 15 1020.5 1020.4 0.0
19/03:30am 12.5 7.8 5.9 64 3.1 NE 20 28 11 15 1020.8 1020.7 0.0
19/03:00am 12.8 8.0 5.7 62 3.3 NE 20 26 11 14 1021.1 1021.0 0.0
19/02:30am 12.8 8.0 5.5 61 3.4 NE 20 28 11 15 1021.3 1021.2 0.0
19/02:00am 12.7 7.9 5.8 63 3.2 NE 20 26 11 14 1021.3 1021.2 0.0
19/01:30am 12.7 8.4 5.4 61 3.4 NE 17 22 9 12 1021.5 1021.4 0.0
19/01:00am 12.7 8.7 5.1 60 3.5 NE 15 19 8 10 1021.8 1021.7 0.0
19/12:30am 12.7 8.7 5.1 60 3.5 ENE 15 17 8 9 1022.0 1021.9 0.0
19/12:00am 12.5 9.0 7.0 69 2.6 E 15 17 8 9 1021.9 1021.8 0.0
 
Date/Time
WST
Temp
°C
App
Temp
°C
Dew
Point
°C
Rel
Hum
%
Delta-T
°C
Wind Press
QNH
hPa
Press
MSL
hPa
Rain since
9am
mm
Dir  Spd
km/h
Gust
km/h
Spd
kts
Gust
kts
18/11:30pm 12.4 8.5 7.1 70 2.6 E 17 20 9 11 1022.2 1022.1 0.0
18/11:00pm 12.7 9.2 7.2 69 2.7 E 15 17 8 9 1022.6 1022.5 0.0
18/10:30pm 13.5 10.2 6.4 62 3.4 ESE 13 17 7 9 1022.7 1022.6 0.0
18/10:00pm 13.7 10.8 6.3 61 3.5 ESE 11 15 6 8 1022.7 1022.6 0.0
18/09:30pm 13.9 11.0 6.3 60 3.6 SE 11 15 6 8 1022.8 1022.7 0.0
18/09:00pm 13.9 10.6 6.3 60 3.6 SE 13 17 7 9 1022.9 1022.8 0.0
18/08:30pm 14.0 10.7 6.6 61 3.6 SE 13 15 7 8 1023.1 1023.0 0.0
18/08:00pm 13.9 10.6 6.5 61 3.5 SSE 13 17 7 9 1023.1 1023.0 0.0
18/07:30pm 14.2 10.9 6.6 60 3.7 SSE 13 19 7 10 1022.9 1022.8 0.0
18/07:00pm 13.3 9.6 6.2 62 3.4 SSE 15 20 8 11 1022.9 1022.8 0.0
18/06:30pm 13.4 10.1 6.3 62 3.4 S 13 20 7 11 1022.8 1022.7 0.0
18/06:00pm 13.3 10.0 6.2 62 3.4 SSE 13 17 7 9 1022.6 1022.5 0.0
18/05:30pm 13.6 10.2 5.7 59 3.7 SSE 13 15 7 8 1022.5 1022.4 0.0
18/05:00pm 13.8 10.4 5.7 58 3.8 S 13 17 7 9 1022.5 1022.4 0.0
18/04:30pm 14.1 10.9 5.2 55 4.2 S 11 17 6 9 1022.8 1022.7 0.0
18/04:00pm 14.5 10.7 5.6 55 4.2 S 15 20 8 11 1022.5 1022.4 0.0
18/03:30pm 14.4 11.2 5.2 54 4.3 SSW 11 19 6 10 1022.6 1022.5 0.0
18/03:00pm 14.4 11.2 5.2 54 4.3 SSW 11 15 6 8 1022.9 1022.8 0.0
18/02:30pm 14.2 11.0 5.0 54 4.3 S 11 15 6 8 1023.0 1022.9 0.0
18/02:00pm 14.6 11.4 5.1 53 4.4 S 11 20 6 11 1023.3 1023.2 0.0
18/01:30pm 14.0 11.3 5.4 56 4.1 SSE 9 13 5 7 1023.5 1023.4 0.0
18/01:00pm 14.4 11.3 5.5 55 4.2 SSE 11 17 6 9 1023.6 1023.5 0.0
18/12:30pm 14.8 12.2 5.9 55 4.3 SE 9 13 5 7 1023.8 1023.7 0.0
18/12:00pm 14.0 10.9 5.6 57 4.0 E 11 17 6 9 1024.3 1024.2 0.0
18/11:30am 15.1 12.2 6.7 57 4.1 NE 11 17 6 9 1024.8 1024.7 0.0
18/11:00am 14.0 11.1 6.4 60 3.6 ENE 11 15 6 8 1024.9 1024.8 0.0
18/10:30am 13.6 10.5 7.2 65 3.1 E 13 20 7 11 1024.9 1024.8 0.0
18/10:00am 13.6 10.9 7.4 66 3.0 E 11 19 6 10 1025.1 1025.0 0.0
18/09:30am 14.0 11.6 8.6 70 2.7 NE 11 15 6 8 1025.2 1025.1 0.0
18/09:00am 13.3 11.5 8.0 70 2.6 E 7 11 4 6 1025.1 1025.0 0.0
18/08:30am 12.4 10.6 7.9 74 2.2 E 7 9 4 5 1025.3 1025.2 0.0
18/08:00am 11.2 9.2 7.3 77 1.9 E 7 9 4 5 1025.2 1025.1 0.0
18/07:30am 10.8 8.4 6.9 77 1.9 E 9 9 5 5 1024.9 1024.8 0.0
18/07:00am 10.7 8.3 6.8 77 1.8 E 9 11 5 6 1024.6 1024.5 0.0
18/06:30am 10.5 8.0 6.6 77 1.8 E 9 11 5 6 1024.4 1024.3 0.0
18/06:00am 10.6 8.1 6.6 76 1.9 E 9 9 5 5 1024.3 1024.2 0.0
18/05:30am 10.4 7.9 6.4 76 1.9 E 9 11 5 6 1024.3 1024.2 0.0
18/05:00am 10.0 6.6 6.0 76 1.8 ESE 13 15 7 8 1024.3 1024.2 0.0
18/04:30am 10.4 7.0 6.0 74 2.0 ESE 13 15 7 8 1024.3 1024.2 0.0
18/04:00am 10.5 7.1 6.1 74 2.0 ESE 13 17 7 9 1024.7 1024.6 0.0
18/03:30am 10.8 7.4 6.0 72 2.2 ESE 13 15 7 8 1024.9 1024.8 0.0
18/03:00am 10.9 7.9 6.1 72 2.2 ESE 11 15 6 8 1025.1 1025.0 0.0
18/02:30am 10.9 7.5 5.7 70 2.4 ESE 13 17 7 9 1025.1 1025.0 0.0
18/02:00am 11.3 8.3 5.8 69 2.5 ESE 11 17 6 9 1025.2 1025.1 0.0
18/01:30am 11.5 8.1 5.8 68 2.7 ESE 13 17 7 9 1025.3 1025.2 0.0
18/01:00am 11.8 8.4 5.9 67 2.7 ESE 13 15 7 8 1025.5 1025.4 0.0
18/12:30am 12.2 8.3 5.4 63 3.2 ESE 15 20 8 11 1025.4 1025.3 0.0
18/12:00am 12.4 8.4 5.1 61 3.4 ESE 15 20 8 11 1025.3 1025.2 0.0
 
Date/Time
WST
Temp
°C
App
Temp
°C
Dew
Point
°C
Rel
Hum
%
Delta-T
°C
Wind Press
QNH
hPa
Press
MSL
hPa
Rain since
9am
mm
Dir  Spd
km/h
Gust
km/h
Spd
kts
Gust
kts
17/11:30pm 12.6 8.6 4.8 59 3.6 ESE 15 20 8 11 1025.3 1025.2 0.0
17/11:00pm 12.9 8.8 4.3 56 3.9 ESE 15 20 8 11 1025.4 1025.3 0.0
17/10:30pm 13.0 8.8 3.7 53 4.2 ESE 15 19 8 10 1025.7 1025.6 0.0
17/10:00pm 13.8 8.9 3.9 51 4.5 SE 19 28 10 15 1025.9 1025.8 0.0
17/09:30pm 13.9 9.3 3.7 50 4.6 SE 17 26 9 14 1025.9 1025.8 0.0
17/09:00pm 13.1 9.2 3.5 52 4.3 SE 13 20 7 11 1026.0 1025.9 0.0
17/08:30pm 13.3 9.4 3.4 51 4.4 SE 13 19 7 10 1026.1 1026.0 0.0
17/08:00pm 13.7 9.0 3.2 49 4.7 SE 17 22 9 12 1026.1 1026.0 0.0
17/07:30pm 13.7 9.0 3.2 49 4.7 SE 17 24 9 13 1026.1 1026.0 0.0
17/07:00pm 13.7 9.0 2.9 48 4.8 SE 17 26 9 14 1026.0 1025.9 0.0

Other formats

Comma delimited format used in spreadsheet applications
http://www.bom.gov.au/fwo/IDW60801/IDW60801.94602.axf

JavaScript Object Notation format (JSON) in row-major order
http://www.bom.gov.au/fwo/IDW60801/IDW60801.94602.json

Data quality

Most of these data are generated automatically and are frequently updated. Quality checks on data are not normally performed. It is possible for incorrect values to appear. Refer to information at About Latest Weather Observations and please check the disclaimer before using these data.